EST,Max TemperatureF,Mean TemperatureF,Min TemperatureF,Max Dew PointF,MeanDew PointF,Min DewpointF,Max Humidity, Mean Humidity, Min Humidity, Max Sea Level PressureIn, Mean Sea Level PressureIn, Min Sea Level PressureIn, Max VisibilityMiles, Mean VisibilityMiles, Min VisibilityMiles, Max Wind SpeedMPH, Mean Wind SpeedMPH, Max Gust SpeedMPH,PrecipitationIn, CloudCover, Events, WindDirDegrees
2013-12-1,46,42,37,34,31,27,70,62,57,30.24,30.12,29.99,10,10,10,12,8,17,0.00,7,,238
2013-12-2,51,42,32,41,35,32,100,72,54,29.99,29.87,29.80,10,10,7,7,3,,0.00,6,,210
2013-12-3,53,44,35,46,44,36,100,88,77,29.90,29.84,29.81,10,9,2,8,4,,0.00,5,,174
2013-12-4,64,55,46,55,51,46,100,82,68,29.91,29.86,29.80,10,10,7,16,8,23,0.00,4,,195
2013-12-5,64,50,35,63,51,34,100,91,77,30.12,29.96,29.87,10,8,2,16,11,23,1.14,7,Rain,296
2013-12-6,35,32,30,34,32,28,100,96,93,30.34,30.17,30.08,10,6,2,14,8,20,0.88,8,Rain-Snow,40
2013-12-7,30,28,26,28,25,23,100,90,80,30.55,30.48,30.34,10,10,3,10,7,,0.00,8,,55
2013-12-8,32,29,26,32,29,23,100,96,86,30.48,30.21,30.03,10,5,1,14,7,18,0.00,8,Rain-Snow,105
2013-12-9,35,32,28,36,31,23,100,92,80,30.24,30.15,30.03,10,7,1,14,8,20,0.00,8,Rain-Snow,292
2013-12-10,32,26,21,25,22,19,93,77,60,30.37,30.24,30.12,10,10,10,15,7,23,0.01,4,,299
2013-12-11,41,30,19,27,22,18,100,77,49,30.49,30.39,30.32,10,10,7,18,7,24,0.00,1,,267
2013-12-12,30,22,14,18,11,7,86,63,40,30.56,30.48,30.36,10,10,10,12,6,16,0.00,1,,281
2013-12-13,44,34,23,27,17,12,70,54,34,30.37,30.27,30.15,10,10,10,12,6,,0.00,2,Rain,229
2013-12-14,44,38,33,45,36,27,100,92,65,30.15,29.91,29.73,10,7,2,15,6,25,0.52,8,Rain,213
2013-12-15,33,32,30,34,28,25,100,89,80,30.15,30.05,29.87,10,10,4,18,11,24,0.01,8,Snow,289
2013-12-16,42,36,30,32,30,27,100,86,66,30.15,30.09,30.03,10,10,7,10,6,16,0.00,6,,243
2013-12-17,42,36,30,36,32,27,93,85,70,30.23,30.08,30.00,10,9,7,15,9,24,0.00,7,Rain,285
2013-12-18,39,32,26,27,24,18,100,81,42,30.31,30.25,30.21,10,9,7,13,7,20,0.00,1,,260
2013-12-19,59,50,42,34,28,21,47,41,31,30.19,30.11,30.06,10,10,10,17,11,25,0.00,0,,237
2013-12-20,60,55,50,54,44,28,94,68,43,30.06,29.99,29.93,10,10,4,16,11,26,0.13,8,Rain,227
2013-12-21,69,63,57,63,58,52,100,83,73,29.93,29.81,29.62,10,10,5,25,15,43,0.53,7,Rain,217
2013-12-22,60,55,48,59,51,45,100,86,72,30.03,29.88,29.69,10,9,2,23,12,55,0.83,7,Rain,249
2013-12-23,46,37,28,46,31,23,100,87,70,30.38,30.28,30.05,10,9,4,13,8,20,0.00,7,Rain,326
2013-12-24,28,22,15,23,16,10,93,74,51,30.53,30.47,30.37,10,9,3,15,6,22,0.01,3,Snow,335
2013-12-25,39,28,17,23,16,12,86,63,41,30.49,30.36,30.23,10,10,10,10,5,17,0.00,3,,196
2013-12-26,41,34,26,28,24,21,87,68,45,30.40,30.33,30.22,10,10,10,15,8,22,0.00,3,,271
2013-12-27,48,36,23,28,23,21,93,62,34,30.46,30.39,30.35,10,10,10,10,6,,0.00,0,,239
2013-12-28,48,40,32,34,26,21,76,59,46,30.36,30.25,30.06,10,10,10,10,7,,0.03,1,Rain,221
2013-12-29,42,38,32,39,37,32,100,94,87,30.05,29.92,29.86,10,8,3,15,5,20,0.78,8,Rain,296
2013-12-30,32,29,26,32,27,21,100,86,75,30.23,30.18,30.04,10,10,10,10,7,17,0.00,7,,302
2013-12-31,35,29,23,23,21,19,93,72,56,30.40,30.31,30.21,10,10,10,16,7,23,0.00,3,,259